Tor Arne — LDOL — position and weather

sailwx.info

Track history (hours):
 
Tides and Currents Weather Stations Pressure Air Temp Water Temp Dewpoint Dewpoint Depression Visibility Wind Speed Wind Dir Waves Ship Positions

Tor Arne

Last reported at 2017-Nov-16 09:05 UTC. Time now 2017-Nov-20 05:52 UTC.
Position N 70°38' E 023°27'.

Length 23 m; draft 2 m.

Type: . MMSI: 257007900.

Date/timePositionNaut miles runAvg speedWind from/ knotsBaromVisibWave heightAir tempDewpointWater temp
2017-Nov-16 09:05N 70°38' E 023°27'1 7.9
2017-Nov-16 08:59N 70°39' E 023°29'4 7.2
2017-Nov-16 08:30N 70°38' E 023°39'2 3.1
2017-Nov-16 07:59N 70°40' E 023°40'0 0.8
2017-Nov-16 07:30N 70°40' E 023°40'0 1.0
2017-Nov-16 07:00N 70°40' E 023°41'0 0.0
2017-Nov-16 06:30N 70°40' E 023°41'0 0.0
2017-Nov-16 06:00N 70°40' E 023°41'0 0.0
2017-Nov-16 05:30N 70°40' E 023°41'0 0.0
2017-Nov-16 05:00N 70°40' E 023°41'0 0.0
2017-Nov-16 04:30N 70°40' E 023°41'0 0.0
2017-Nov-16 04:00N 70°40' E 023°41'0 0.0
2017-Nov-16 03:29N 70°40' E 023°41'0 0.0
2017-Nov-16 03:00N 70°40' E 023°41'0 0.0
2017-Nov-16 02:30N 70°40' E 023°41'0 0.0
2017-Nov-16 02:00N 70°40' E 023°41'0 0.0
2017-Nov-16 01:29N 70°40' E 023°41'0 0.0
2017-Nov-16 01:00N 70°40' E 023°41'0 0.0
2017-Nov-16 00:30N 70°40' E 023°41'0 0.0
2017-Nov-16 00:00N 70°40' E 023°41'0 0.0
2017-Nov-15 23:30N 70°40' E 023°41'0 0.0
2017-Nov-15 23:00N 70°40' E 023°41'0 0.0
2017-Nov-15 22:30N 70°40' E 023°41'0 0.0
2017-Nov-15 22:00N 70°40' E 023°41'0 0.0
2017-Nov-15 21:30N 70°40' E 023°41'0 0.0
2017-Nov-15 21:00N 70°40' E 023°41'0 0.0
2017-Nov-15 20:30N 70°40' E 023°41'0 0.0
2017-Nov-15 20:00N 70°40' E 023°41'2 3.0
2017-Nov-15 19:30N 70°40' E 023°37'3 6.8
2017-Nov-15 19:00N 70°44' E 023°38'4 7.4
2017-Nov-15 18:30N 70°45' E 023°48'2 3.5
2017-Nov-15 18:00N 70°43' E 023°49'0 0.0
2017-Nov-15 17:30N 70°43' E 023°49'0 0.2
2017-Nov-15 17:00N 70°43' E 023°49'0 0.1
2017-Nov-15 16:29N 70°43' E 023°49'0 0.0
2017-Nov-15 16:00N 70°43' E 023°49'0 0.0
2017-Nov-15 15:30N 70°43' E 023°49'0 0.0
2017-Nov-15 15:00N 70°43' E 023°49'0 0.0
2017-Nov-15 14:30N 70°43' E 023°49'0 0.0
2017-Nov-15 14:00N 70°43' E 023°49'0 0.0
2017-Nov-15 13:30N 70°43' E 023°49'0 0.0
2017-Nov-15 13:00N 70°43' E 023°49'0 0.0
2017-Nov-15 12:30N 70°43' E 023°49'0 0.0
2017-Nov-15 12:00N 70°43' E 023°49'0 0.0
2017-Nov-15 11:30N 70°43' E 023°49'0 0.0
2017-Nov-15 11:00N 70°43' E 023°49'0 0.0
2017-Nov-15 10:30N 70°43' E 023°49'0 0.0
2017-Nov-15 10:00N 70°43' E 023°49'0 0.0
2017-Nov-15 09:30N 70°43' E 023°49'0 0.0
2017-Nov-15 09:00N 70°43' E 023°49'0 0.0
2017-Nov-15 08:30N 70°43' E 023°49'0 0.3
2017-Nov-15 07:59N 70°43' E 023°49'0 0.0
2017-Nov-15 07:30N 70°43' E 023°49'0 0.0
2017-Nov-15 07:00N 70°43' E 023°49'0 0.0
2017-Nov-15 06:30N 70°43' E 023°49'0 0.0
2017-Nov-15 06:00N 70°43' E 023°49'0 0.0
2017-Nov-15 05:30N 70°43' E 023°49'0 0.0
2017-Nov-15 04:59N 70°43' E 023°49'0 0.0
2017-Nov-15 04:30N 70°43' E 023°49'0 0.0
2017-Nov-15 04:00N 70°43' E 023°49'0 0.0
2017-Nov-15 03:30N 70°43' E 023°49'0 0.0
2017-Nov-15 02:59N 70°43' E 023°49'0 0.0
2017-Nov-15 02:29N 70°43' E 023°49'0 0.0
2017-Nov-15 02:00N 70°43' E 023°49'0 0.0
2017-Nov-15 01:30N 70°43' E 023°49'0 0.0
2017-Nov-15 01:00N 70°43' E 023°49'0 0.0
2017-Nov-15 00:30N 70°43' E 023°49'0 0.0
2017-Nov-15 00:00N 70°43' E 023°49'0 0.0
2017-Nov-14 23:30N 70°43' E 023°49'0 0.0
2017-Nov-14 23:00N 70°43' E 023°49'0 0.0
2017-Nov-14 22:30N 70°43' E 023°49'0 0.0
2017-Nov-14 22:00N 70°43' E 023°49'0 0.0
2017-Nov-14 21:30N 70°43' E 023°49'0 0.0
2017-Nov-14 21:00N 70°43' E 023°49'0 0.0
2017-Nov-14 20:29N 70°43' E 023°49'0 0.0
2017-Nov-14 20:00N 70°43' E 023°49'0 0.0
2017-Nov-14 19:30N 70°43' E 023°49'0 0.0
2017-Nov-14 19:01N 70°43' E 023°49'0 0.0
2017-Nov-14 18:30N 70°43' E 023°49'0 0.0
2017-Nov-14 18:00N 70°43' E 023°49'0 0.0
2017-Nov-14 17:30N 70°43' E 023°49'0 0.0
2017-Nov-14 17:00N 70°43' E 023°49'0 0.0
2017-Nov-14 16:30N 70°43' E 023°49'0 0.0
2017-Nov-14 16:01N 70°43' E 023°49'0 0.2
2017-Nov-14 15:31N 70°43' E 023°49'0 0.1
2017-Nov-14 15:00N 70°43' E 023°49'0 0.0
2017-Nov-14 14:30N 70°43' E 023°49'0 0.0
2017-Nov-14 14:00N 70°43' E 023°49'0 0.0
2017-Nov-14 13:30N 70°43' E 023°49'0 0.0
2017-Nov-14 13:00N 70°43' E 023°49'0 0.0
2017-Nov-14 12:31N 70°43' E 023°49'0 0.3
2017-Nov-14 12:00N 70°43' E 023°49'0 0.0
2017-Nov-14 11:31N 70°43' E 023°49'0 0.0
2017-Nov-14 11:00N 70°43' E 023°49'0 0.0
2017-Nov-14 10:30N 70°43' E 023°49'0 0.0
2017-Nov-14 10:00N 70°43' E 023°49'0 0.0
2017-Nov-14 09:30N 70°43' E 023°49'0 0.0
2017-Nov-14 09:00N 70°43' E 023°49'0 0.0
2017-Nov-14 08:30N 70°43' E 023°49'0 0.0
2017-Nov-14 08:00N 70°43' E 023°49'0 0.0
2017-Nov-14 07:30N 70°43' E 023°49'0 0.0
2017-Nov-14 07:00N 70°43' E 023°49'0 0.0
2017-Nov-14 06:31N 70°43' E 023°49'0 0.0
2017-Nov-14 06:00N 70°43' E 023°49'0 0.0
2017-Nov-14 05:30N 70°43' E 023°49'0 0.0
2017-Nov-14 05:01N 70°43' E 023°49'0 0.0
2017-Nov-14 04:30N 70°43' E 023°49'0 0.0
2017-Nov-14 04:00N 70°43' E 023°49'0 0.0
2017-Nov-14 03:30N 70°43' E 023°49'0 0.0
2017-Nov-14 03:00N 70°43' E 023°49'0 0.0
2017-Nov-14 02:30N 70°43' E 023°49'0 0.0
2017-Nov-14 02:00N 70°43' E 023°49'0 0.0
2017-Nov-14 01:30N 70°43' E 023°49'0 0.0
2017-Nov-14 01:00N 70°43' E 023°49'0 0.0
2017-Nov-14 00:30N 70°43' E 023°49'0 0.0
2017-Nov-14 00:00N 70°43' E 023°49'0 0.0
2017-Nov-13 23:30N 70°43' E 023°49'0 0.0
2017-Nov-13 23:00N 70°43' E 023°49'0 0.0
2017-Nov-13 22:30N 70°43' E 023°49'0 0.0
2017-Nov-13 22:00N 70°43' E 023°49'36 1.8
2017-Nov-13 02:00N 70°29' E 022°10'0 0.0
2017-Nov-13 01:30N 70°29' E 022°10'0 0.0
2017-Nov-13 01:00N 70°29' E 022°10'0 0.0
2017-Nov-13 00:30N 70°29' E 022°10'0 0.0
2017-Nov-13 00:00N 70°29' E 022°10'1 1.1
2017-Nov-12 23:30N 70°28' E 022°11'4 8.5
2017-Nov-12 23:00N 70°24' E 022°15'4 8.5
2017-Nov-12 22:30N 70°20' E 022°19'4 8.4
2017-Nov-12 22:00N 70°17' E 022°26'4 8.0
2017-Nov-12 21:30N 70°16' E 022°37'0 0.2
2017-Nov-12 21:00N 70°16' E 022°38'3 6.1
2017-Nov-12 20:30N 70°16' E 022°29'4 8.3
2017-Nov-12 20:00N 70°18' E 022°18'4 8.2
2017-Nov-12 19:30N 70°20' E 022°07'4 8.3
2017-Nov-12 19:00N 70°22' E 021°56'4 8.3
2017-Nov-12 18:30N 70°24' E 021°44'4 7.4
2017-Nov-12 18:00N 70°22' E 021°35'4 8.3
2017-Nov-12 17:30N 70°19' E 021°27'4 8.4
2017-Nov-12 17:01N 70°16' E 021°17'4 8.1
2017-Nov-12 16:31N 70°13' E 021°09'4 8.5
2017-Nov-12 16:00N 70°09' E 021°07'4 8.2
2017-Nov-12 15:30N 70°05' E 021°03'3 6.8
2017-Nov-12 15:00N 70°02' E 020°59'0 0.0
2017-Nov-12 14:30N 70°02' E 020°59'0 0.0
2017-Nov-12 14:00N 70°02' E 020°59'0 0.0
2017-Nov-12 13:30N 70°02' E 020°59'0 0.0
2017-Nov-12 13:00N 70°02' E 020°59'0 0.0
2017-Nov-12 12:31N 70°02' E 020°59'0 0.0
2017-Nov-12 12:01N 70°02' E 020°59'0 0.0
2017-Nov-12 11:30N 70°02' E 020°59'0 0.0
2017-Nov-12 11:00N 70°02' E 020°59'0 0.0
2017-Nov-12 10:30N 70°02' E 020°59'0 0.0
2017-Nov-12 10:00N 70°02' E 020°59'0 0.0
2017-Nov-12 09:30N 70°02' E 020°59'0 0.0
2017-Nov-12 09:00N 70°02' E 020°59'0 0.0
2017-Nov-12 08:30N 70°02' E 020°59'0 0.0
2017-Nov-12 08:00N 70°02' E 020°59'0 0.0
2017-Nov-12 07:30N 70°02' E 020°59'0 0.0
2017-Nov-12 07:00N 70°02' E 020°59'0 0.0
2017-Nov-12 06:30N 70°02' E 020°59'0 0.0
2017-Nov-12 06:00N 70°02' E 020°59'0 0.0
2017-Nov-12 05:30N 70°02' E 020°59'0 0.0
2017-Nov-12 04:59N 70°02' E 020°59'0 0.0
2017-Nov-12 04:30N 70°02' E 020°59'0 0.0
2017-Nov-12 04:00N 70°02' E 020°59'0 0.0
2017-Nov-12 03:30N 70°02' E 020°59'0 0.0
2017-Nov-12 03:00N 70°02' E 020°59'0 0.0
2017-Nov-12 02:30N 70°02' E 020°59'0 0.0
2017-Nov-12 02:00N 70°02' E 020°59'0 0.0
2017-Nov-12 01:31N 70°02' E 020°59'0 0.0
2017-Nov-12 01:00N 70°02' E 020°59'0 0.0
2017-Nov-12 00:29N 70°02' E 020°59'0 0.0
2017-Nov-12 00:00N 70°02' E 020°59'0 0.0
2017-Nov-11 23:30N 70°02' E 020°59'0 0.0
2017-Nov-11 23:01N 70°02' E 020°59'0 0.0
2017-Nov-11 22:29N 70°02' E 020°59'0 0.0
2017-Nov-11 22:00N 70°02' E 020°59'0 0.0
2017-Nov-11 21:31N 70°02' E 020°59'0 0.0
2017-Nov-11 21:00N 70°02' E 020°59'0 0.0
2017-Nov-11 20:30N 70°02' E 020°59'0 0.0
2017-Nov-11 20:00N 70°02' E 020°59'0 0.0
2017-Nov-11 19:30N 70°02' E 020°59'0 0.0
2017-Nov-11 19:01N 70°02' E 020°59'0 0.0
2017-Nov-11 18:29N 70°02' E 020°59'0 0.0
2017-Nov-11 18:00N 70°02' E 020°59'0 0.0
2017-Nov-11 17:30N 70°02' E 020°59'2 4.7
2017-Nov-11 17:00N 70°00' E 021°04'4 7.8
2017-Nov-11 16:30N 69°57' E 020°58'4 8.7
2017-Nov-11 16:00N 69°55' E 020°47'4 7.5
2017-Nov-11 15:30N 69°55' E 020°36'0 0.0
2017-Nov-11 15:00N 69°55' E 020°36'0 0.0
2017-Nov-11 14:30N 69°55' E 020°36'0 0.0
2017-Nov-11 14:00N 69°55' E 020°36'0 0.0
2017-Nov-11 13:30N 69°55' E 020°36'0 0.0
2017-Nov-11 13:00N 69°55' E 020°36'0 0.1
2017-Nov-11 12:30N 69°55' E 020°36'0 0.0
2017-Nov-11 12:00N 69°55' E 020°36'0 0.0
2017-Nov-11 11:30N 69°55' E 020°36'0 0.0
2017-Nov-11 11:00N 69°55' E 020°36'0 0.0
2017-Nov-11 10:30N 69°55' E 020°36'0 0.0
2017-Nov-11 10:00N 69°55' E 020°36'0 0.0
2017-Nov-11 09:30N 69°55' E 020°36'0 0.0
2017-Nov-11 09:00N 69°55' E 020°36'3 5.7
2017-Nov-11 08:30N 69°55' E 020°45'4 7.8
2017-Nov-11 08:00N 69°56' E 020°56'4 8.0
2017-Nov-11 07:30N 69°59' E 021°04'3 6.4
2017-Nov-11 07:00N 70°02' E 020°59'0 0.3
2017-Nov-11 06:30N 70°02' E 020°59'0 0.0
2017-Nov-11 06:00N 70°02' E 020°59'0 0.0
2017-Nov-11 05:30N 70°02' E 020°59'0 0.0
2017-Nov-11 05:00N 70°02' E 020°59'0 0.0
2017-Nov-11 04:30N 70°02' E 020°59'0 0.0
2017-Nov-11 04:00N 70°02' E 020°59'0 0.0
2017-Nov-11 03:31N 70°02' E 020°59'0 0.0
2017-Nov-11 03:00N 70°02' E 020°59'0 0.0
2017-Nov-11 02:30N 70°02' E 020°59'0 0.0
2017-Nov-11 02:00N 70°02' E 020°59'0 0.0
2017-Nov-11 01:30N 70°02' E 020°59'0 0.0
2017-Nov-11 01:00N 70°02' E 020°59'0 0.0
2017-Nov-11 00:30N 70°02' E 020°59'0 0.0
2017-Nov-11 00:00N 70°02' E 020°59'0 0.0
2017-Nov-10 23:30N 70°02' E 020°59'0 0.0
2017-Nov-10 23:00N 70°02' E 020°59'0 0.0
2017-Nov-10 22:30N 70°02' E 020°59'0 0.0
2017-Nov-10 21:59N 70°02' E 020°59'0 0.0
2017-Nov-10 21:30N 70°02' E 020°59'0 0.0
2017-Nov-10 21:00N 70°02' E 020°59'0 0.0
2017-Nov-10 20:30N 70°02' E 020°59'0 0.0
2017-Nov-10 20:00N 70°02' E 020°59'0 0.0
2017-Nov-10 19:30N 70°02' E 020°59'0 0.0
2017-Nov-10 19:00N 70°02' E 020°59'0 0.0
2017-Nov-10 18:30N 70°02' E 020°59'0 0.0
2017-Nov-10 18:00N 70°02' E 020°59'0 0.0
2017-Nov-10 17:30N 70°02' E 020°59'0 0.0
2017-Nov-10 17:00N 70°02' E 020°59'0 0.0
2017-Nov-10 16:30N 70°02' E 020°59'0 0.0
2017-Nov-10 16:00N 70°02' E 020°59'0 0.0
2017-Nov-10 15:31N 70°02' E 020°59'0 0.0
2017-Nov-10 15:00N 70°02' E 020°59'0 0.0
2017-Nov-10 14:30N 70°02' E 020°59'0 0.0
2017-Nov-10 14:00N 70°02' E 020°59'0 0.0
2017-Nov-10 13:30N 70°02' E 020°59'0 0.0
2017-Nov-10 13:00N 70°02' E 020°59'0 0.0
2017-Nov-10 12:30N 70°02' E 020°59'0 0.0
2017-Nov-10 12:00N 70°02' E 020°59'0 0.0
2017-Nov-10 11:30N 70°02' E 020°59'0 0.0
2017-Nov-10 11:00N 70°02' E 020°59'0 0.7
2017-Nov-10 10:30N 70°02' E 020°59'4 7.5
2017-Nov-10 10:01N 70°05' E 021°04'4 8.0
2017-Nov-10 09:30N 70°09' E 021°07'4 7.7
2017-Nov-10 09:00N 70°13' E 021°09'4 7.5
2017-Nov-10 08:30N 70°16' E 021°17'4 7.8
2017-Nov-10 08:00N 70°18' E 021°26'4 7.7
2017-Nov-10 07:30N 70°20' E 021°35'4 8.2
2017-Nov-10 07:00N 70°17' E 021°40'4 7.5
2017-Nov-10 06:30N 70°13' E 021°43'0 0.1
2017-Nov-10 06:00N 70°13' E 021°43'0 0.0
2017-Nov-10 05:30N 70°13' E 021°43'0 0.0
2017-Nov-10 04:59N 70°13' E 021°43'0 0.0
2017-Nov-10 04:30N 70°13' E 021°43'0 0.0
2017-Nov-10 04:00N 70°13' E 021°43'0 0.0
2017-Nov-10 03:30N 70°13' E 021°43'0 0.0
2017-Nov-10 02:58N 70°13' E 021°43'0 0.0
2017-Nov-10 02:26N 70°13' E 021°43'0 0.0
2017-Nov-10 01:57N 70°13' E 021°43'0 0.0
2017-Nov-10 01:29N 70°13' E 021°43'0 0.0
2017-Nov-10 00:59N 70°13' E 021°43'0 0.0
2017-Nov-10 00:28N 70°13' E 021°43'0 0.0
2017-Nov-10 00:00N 70°13' E 021°43'0 0.0
2017-Nov-09 23:29N 70°13' E 021°43'0 0.0
2017-Nov-09 22:57N 70°13' E 021°43'0 0.0
2017-Nov-09 22:30N 70°13' E 021°43'0 0.0
2017-Nov-09 21:57N 70°13' E 021°43'0 0.0
2017-Nov-09 21:16N 70°13' E 021°43'0 0.0
2017-Nov-09 21:00N 70°13' E 021°43'0 0.0
2017-Nov-09 20:30N 70°13' E 021°43'0 0.0
2017-Nov-09 20:00N 70°13' E 021°43'0 0.0
2017-Nov-09 19:30N 70°13' E 021°43'0 0.0
2017-Nov-09 19:00N 70°13' E 021°43'0 0.0
2017-Nov-09 18:29N 70°13' E 021°43'0 0.0
2017-Nov-09 17:57N 70°13' E 021°43'0 0.0
2017-Nov-09 17:30N 70°13' E 021°43'4 7.3
2017-Nov-09 17:00N 70°17' E 021°47'4 8.1
2017-Nov-09 16:30N 70°20' E 021°54'4 7.7
2017-Nov-09 16:00N 70°22' E 022°04'3 6.1
2017-Nov-09 15:30N 70°24' E 022°10'4 7.5
2017-Nov-09 15:00N 70°27' E 022°18'4 7.4
2017-Nov-09 14:30N 70°28' E 022°28'4 8.0
2017-Nov-09 14:00N 70°29' E 022°40'3 6.6
2017-Nov-09 13:30N 70°30' E 022°49'4 7.3
2017-Nov-09 13:00N 70°32' E 022°59'4 8.1
2017-Nov-09 12:30N 70°35' E 023°07'4 8.0
2017-Nov-09 12:00N 70°37' E 023°16'4 8.6
2017-Nov-09 11:30N 70°40' E 023°25'4 8.2
2017-Nov-09 11:00N 70°43' E 023°34'4 8.1
2017-Nov-09 10:30N 70°46' E 023°43'4 7.8
2017-Nov-09 10:00N 70°48' E 023°53'4 8.1
2017-Nov-09 09:30N 70°51' E 024°02'4 8.6
2017-Nov-09 09:00N 70°54' E 024°12'4 8.3
2017-Nov-09 08:30N 70°56' E 024°22'4 8.0
2017-Nov-09 08:00N 70°59' E 024°32'3 6.9
2017-Nov-09 07:30N 70°60' E 024°42'0 0.0
2017-Nov-09 07:00N 70°60' E 024°42'1 1.4
2017-Nov-09 06:30N 70°60' E 024°40'0 0.0
2017-Nov-09 06:00N 70°60' E 024°40'0 0.0
2017-Nov-09 05:29N 70°60' E 024°40'0 0.0
2017-Nov-09 05:01N 70°60' E 024°40'0 0.0
2017-Nov-09 04:30N 70°60' E 024°40'0 0.0
2017-Nov-09 04:01N 70°60' E 024°40'0 0.0
2017-Nov-09 03:30N 70°60' E 024°40'0 0.0
2017-Nov-09 03:00N 70°60' E 024°40'0 0.0
2017-Nov-09 02:30N 70°60' E 024°40'0 0.0
2017-Nov-09 02:01N 70°60' E 024°40'0 0.0
2017-Nov-09 01:30N 70°60' E 024°40'0 0.0
2017-Nov-09 01:00N 70°60' E 024°40'0 0.0
2017-Nov-09 00:31N 70°60' E 024°40'0 0.0
2017-Nov-09 00:00N 70°60' E 024°40'0 0.0
2017-Nov-08 23:30N 70°60' E 024°40'0 0.0
2017-Nov-08 23:00N 70°60' E 024°40'0 0.0
2017-Nov-08 22:30N 70°60' E 024°40'0 0.0
2017-Nov-08 22:00N 70°60' E 024°40'0 0.0
2017-Nov-08 21:30N 70°60' E 024°40'0 0.0
2017-Nov-08 21:00N 70°60' E 024°40'0 0.0
2017-Nov-08 20:30N 70°60' E 024°40'0 0.0
2017-Nov-08 20:00N 70°60' E 024°40'0 0.0
2017-Nov-08 19:30N 70°60' E 024°40'0 0.0
2017-Nov-08 19:00N 70°60' E 024°40'0 0.0
2017-Nov-08 18:30N 70°60' E 024°40'0 0.0
2017-Nov-08 18:00N 70°60' E 024°40'0 0.0
2017-Nov-08 17:30N 70°60' E 024°40'0 0.0
2017-Nov-08 17:00N 70°60' E 024°40'0 0.0
2017-Nov-08 16:30N 70°60' E 024°40'0 0.0
2017-Nov-08 16:00N 70°60' E 024°40'1 1.3
2017-Nov-08 15:30N 70°60' E 024°42'0 0.0
2017-Nov-08 15:00N 70°60' E 024°42'1 1.1
2017-Nov-08 14:30N 70°60' E 024°40'3 5.5
2017-Nov-08 13:59N 70°58' E 024°35'0 0.0
2017-Nov-08 13:30N 70°58' E 024°34'0 0.9
2017-Nov-08 13:00N 70°58' E 024°33'0 0.9
2017-Nov-08 12:30N 70°57' E 024°34'0 0.9
2017-Nov-08 12:00N 70°57' E 024°33'0 0.5
2017-Nov-08 11:30N 70°58' E 024°33'0 0.2
2017-Nov-08 11:00N 70°58' E 024°33'0 0.4
2017-Nov-08 10:30N 70°58' E 024°33'0 0.2
2017-Nov-08 10:00N 70°57' E 024°34'1 1.0
2017-Nov-08 09:30N 70°58' E 024°32'0 0.0
2017-Nov-08 09:00N 70°58' E 024°32'1 1.0
2017-Nov-08 08:30N 70°57' E 024°34'1 1.3
2017-Nov-08 08:00N 70°58' E 024°36'2 3.3
2017-Nov-08 07:31N 70°59' E 024°35'2 4.4
2017-Nov-08 07:00N 70°60' E 024°42'1 1.1
2017-Nov-08 06:31N 70°60' E 024°40'0 0.0
2017-Nov-08 06:00N 70°60' E 024°40'0 0.0
2017-Nov-08 05:30N 70°60' E 024°40'0 0.0
2017-Nov-08 05:01N 70°60' E 024°40'0 0.0
2017-Nov-08 04:30N 70°60' E 024°40'0 0.0
2017-Nov-08 04:01N 70°60' E 024°40'0 0.0
2017-Nov-08 03:29N 70°60' E 024°40'0 0.0
2017-Nov-08 03:00N 70°60' E 024°40'0 0.0
2017-Nov-08 02:30N 70°60' E 024°40'0 0.0
2017-Nov-08 02:01N 70°60' E 024°40'0 0.0
2017-Nov-08 01:30N 70°60' E 024°40'0 0.0
2017-Nov-08 01:00N 70°60' E 024°40'0 0.0
2017-Nov-08 00:30N 70°60' E 024°40'0 0.0
2017-Nov-08 00:01N 70°60' E 024°40'0 0.0
2017-Nov-07 23:30N 70°60' E 024°40'0 0.0
2017-Nov-07 23:01N 70°60' E 024°40'0 0.0
2017-Nov-07 22:30N 70°60' E 024°40'0 0.0
2017-Nov-07 22:00N 70°60' E 024°40'0 0.0
2017-Nov-07 21:30N 70°60' E 024°40'0 0.0
2017-Nov-07 21:00N 70°60' E 024°40'0 0.0
2017-Nov-07 20:30N 70°60' E 024°40'0 0.0
2017-Nov-07 20:00N 70°60' E 024°40'0 0.0
2017-Nov-07 19:30N 70°60' E 024°40'0 0.0
2017-Nov-07 19:01N 70°60' E 024°40'0 0.0
2017-Nov-07 18:30N 70°60' E 024°40'0 0.0
2017-Nov-07 18:00N 70°60' E 024°40'0 0.0
2017-Nov-07 17:30N 70°60' E 024°40'0 0.0
2017-Nov-07 16:59N 70°60' E 024°40'1 2.9
2017-Nov-07 16:30N 70°59' E 024°36'2 3.7
2017-Nov-07 16:00N 70°57' E 024°36'0 0.1
2017-Nov-07 15:30N 70°58' E 024°36'1 1.6
2017-Nov-07 15:00N 70°58' E 024°33'0 0.3
2017-Nov-07 14:31N 70°58' E 024°34'0 0.1
2017-Nov-07 14:00N 70°58' E 024°34'0 0.3
2017-Nov-07 13:30N 70°58' E 024°33'0 0.5
2017-Nov-07 13:00N 70°58' E 024°34'0 0.3
2017-Nov-07 12:30N 70°58' E 024°34'1 1.3
2017-Nov-07 12:00N 70°57' E 024°32'1 1.4
2017-Nov-07 11:30N 70°58' E 024°34'0 0.3
2017-Nov-07 11:00N 70°57' E 024°34'0 0.9
2017-Nov-07 10:30N 70°57' E 024°33'0 0.3
2017-Nov-07 10:01N 70°58' E 024°33'1 1.9
2017-Nov-07 09:31N 70°58' E 024°32'3 5.9
2017-Nov-07 09:00N 70°60' E 024°40'0 0.0
2017-Nov-07 08:30N 70°60' E 024°40'0 0.0
2017-Nov-07 08:00N 70°60' E 024°40'0 0.0
2017-Nov-07 07:30N 70°60' E 024°40'0 0.0
2017-Nov-07 07:00N 70°60' E 024°40'0 0.0
2017-Nov-07 06:30N 70°60' E 024°40'0 0.0
2017-Nov-07 06:00N 70°60' E 024°40'0 0.0
2017-Nov-07 05:30N 70°60' E 024°40'0 0.0
2017-Nov-07 05:00N 70°60' E 024°40'0 0.0
2017-Nov-07 04:30N 70°60' E 024°40'0 0.0
2017-Nov-07 04:00N 70°60' E 024°40'0 0.0
2017-Nov-07 03:31N 70°60' E 024°40'0 0.0
2017-Nov-07 03:00N 70°60' E 024°40'0 0.0
2017-Nov-07 02:30N 70°60' E 024°40'0 0.0
2017-Nov-07 01:59N 70°60' E 024°40'0 0.0
2017-Nov-07 01:30N 70°60' E 024°40'0 0.0
2017-Nov-07 01:00N 70°60' E 024°40'0 0.0
2017-Nov-07 00:29N 70°60' E 024°40'0 0.0
2017-Nov-07 00:00N 70°60' E 024°40'0 0.0
2017-Nov-06 23:31N 70°60' E 024°40'0 0.0
2017-Nov-06 23:00N 70°60' E 024°40'0 0.0
2017-Nov-06 22:30N 70°60' E 024°40'0 0.0
2017-Nov-06 22:00N 70°60' E 024°40'0 0.0
2017-Nov-06 21:30N 70°60' E 024°40'0 0.0
2017-Nov-06 21:00N 70°60' E 024°40'0 0.0
2017-Nov-06 20:30N 70°60' E 024°40'  
Track history (hours):
 
Tides and Currents Weather Stations Pressure Air Temp Water Temp Dewpoint Dewpoint Depression Visibility Wind Speed Wind Dir Waves Ship Positions

Tor Arne

Last reported at 2017-Nov-16 09:05 UTC. Time now 2017-Nov-20 05:53 UTC.
Position N 70°38' E 023°27'.

Length 23 m; draft 2 m.

Type: . MMSI: 257007900.

Date/timePositionNaut miles runAvg speedWind from/ knotsBaromVisibWave heightAir tempDewpointWater temp
2017-Nov-16 09:05N 70°38' E 023°27'1 7.9
2017-Nov-16 08:59N 70°39' E 023°29'4 7.2
2017-Nov-16 08:30N 70°38' E 023°39'2 3.1
2017-Nov-16 07:59N 70°40' E 023°40'0 0.8
2017-Nov-16 07:30N 70°40' E 023°40'0 1.0
2017-Nov-16 07:00N 70°40' E 023°41'0 0.0
2017-Nov-16 06:30N 70°40' E 023°41'0 0.0
2017-Nov-16 06:00N 70°40' E 023°41'0 0.0
2017-Nov-16 05:30N 70°40' E 023°41'0 0.0
2017-Nov-16 05:00N 70°40' E 023°41'0 0.0
2017-Nov-16 04:30N 70°40' E 023°41'0 0.0
2017-Nov-16 04:00N 70°40' E 023°41'0 0.0
2017-Nov-16 03:29N 70°40' E 023°41'0 0.0
2017-Nov-16 03:00N 70°40' E 023°41'0 0.0
2017-Nov-16 02:30N 70°40' E 023°41'0 0.0
2017-Nov-16 02:00N 70°40' E 023°41'0 0.0
2017-Nov-16 01:29N 70°40' E 023°41'0 0.0
2017-Nov-16 01:00N 70°40' E 023°41'0 0.0
2017-Nov-16 00:30N 70°40' E 023°41'0 0.0
2017-Nov-16 00:00N 70°40' E 023°41'0 0.0
2017-Nov-15 23:30N 70°40' E 023°41'0 0.0
2017-Nov-15 23:00N 70°40' E 023°41'0 0.0
2017-Nov-15 22:30N 70°40' E 023°41'0 0.0
2017-Nov-15 22:00N 70°40' E 023°41'0 0.0
2017-Nov-15 21:30N 70°40' E 023°41'0 0.0
2017-Nov-15 21:00N 70°40' E 023°41'0 0.0
2017-Nov-15 20:30N 70°40' E 023°41'0 0.0
2017-Nov-15 20:00N 70°40' E 023°41'2 3.0
2017-Nov-15 19:30N 70°40' E 023°37'3 6.8
2017-Nov-15 19:00N 70°44' E 023°38'4 7.4
2017-Nov-15 18:30N 70°45' E 023°48'2 3.5
2017-Nov-15 18:00N 70°43' E 023°49'0 0.0
2017-Nov-15 17:30N 70°43' E 023°49'0 0.2
2017-Nov-15 17:00N 70°43' E 023°49'0 0.1
2017-Nov-15 16:29N 70°43' E 023°49'0 0.0
2017-Nov-15 16:00N 70°43' E 023°49'0 0.0
2017-Nov-15 15:30N 70°43' E 023°49'0 0.0
2017-Nov-15 15:00N 70°43' E 023°49'0 0.0
2017-Nov-15 14:30N 70°43' E 023°49'0 0.0
2017-Nov-15 14:00N 70°43' E 023°49'0 0.0
2017-Nov-15 13:30N 70°43' E 023°49'0 0.0
2017-Nov-15 13:00N 70°43' E 023°49'0 0.0
2017-Nov-15 12:30N 70°43' E 023°49'0 0.0
2017-Nov-15 12:00N 70°43' E 023°49'0 0.0
2017-Nov-15 11:30N 70°43' E 023°49'0 0.0
2017-Nov-15 11:00N 70°43' E 023°49'0 0.0
2017-Nov-15 10:30N 70°43' E 023°49'0 0.0
2017-Nov-15 10:00N 70°43' E 023°49'0 0.0
2017-Nov-15 09:30N 70°43' E 023°49'0 0.0
2017-Nov-15 09:00N 70°43' E 023°49'0 0.0
2017-Nov-15 08:30N 70°43' E 023°49'0 0.3
2017-Nov-15 07:59N 70°43' E 023°49'0 0.0
2017-Nov-15 07:30N 70°43' E 023°49'0 0.0
2017-Nov-15 07:00N 70°43' E 023°49'0 0.0
2017-Nov-15 06:30N 70°43' E 023°49'0 0.0
2017-Nov-15 06:00N 70°43' E 023°49'0 0.0
2017-Nov-15 05:30N 70°43' E 023°49'0 0.0
2017-Nov-15 04:59N 70°43' E 023°49'0 0.0
2017-Nov-15 04:30N 70°43' E 023°49'0 0.0
2017-Nov-15 04:00N 70°43' E 023°49'0 0.0
2017-Nov-15 03:30N 70°43' E 023°49'0 0.0
2017-Nov-15 02:59N 70°43' E 023°49'0 0.0
2017-Nov-15 02:29N 70°43' E 023°49'0 0.0
2017-Nov-15 02:00N 70°43' E 023°49'0 0.0
2017-Nov-15 01:30N 70°43' E 023°49'0 0.0
2017-Nov-15 01:00N 70°43' E 023°49'0 0.0
2017-Nov-15 00:30N 70°43' E 023°49'0 0.0
2017-Nov-15 00:00N 70°43' E 023°49'0 0.0
2017-Nov-14 23:30N 70°43' E 023°49'0 0.0
2017-Nov-14 23:00N 70°43' E 023°49'0 0.0
2017-Nov-14 22:30N 70°43' E 023°49'0 0.0
2017-Nov-14 22:00N 70°43' E 023°49'0 0.0
2017-Nov-14 21:30N 70°43' E 023°49'0 0.0
2017-Nov-14 21:00N 70°43' E 023°49'0 0.0
2017-Nov-14 20:29N 70°43' E 023°49'0 0.0
2017-Nov-14 20:00N 70°43' E 023°49'0 0.0
2017-Nov-14 19:30N 70°43' E 023°49'0 0.0
2017-Nov-14 19:01N 70°43' E 023°49'0 0.0
2017-Nov-14 18:30N 70°43' E 023°49'0 0.0
2017-Nov-14 18:00N 70°43' E 023°49'0 0.0
2017-Nov-14 17:30N 70°43' E 023°49'0 0.0
2017-Nov-14 17:00N 70°43' E 023°49'0 0.0
2017-Nov-14 16:30N 70°43' E 023°49'0 0.0
2017-Nov-14 16:01N 70°43' E 023°49'0 0.2
2017-Nov-14 15:31N 70°43' E 023°49'0 0.1
2017-Nov-14 15:00N 70°43' E 023°49'0 0.0
2017-Nov-14 14:30N 70°43' E 023°49'0 0.0
2017-Nov-14 14:00N 70°43' E 023°49'0 0.0
2017-Nov-14 13:30N 70°43' E 023°49'0 0.0
2017-Nov-14 13:00N 70°43' E 023°49'0 0.0
2017-Nov-14 12:31N 70°43' E 023°49'0 0.3
2017-Nov-14 12:00N 70°43' E 023°49'0 0.0
2017-Nov-14 11:31N 70°43' E 023°49'0 0.0
2017-Nov-14 11:00N 70°43' E 023°49'0 0.0
2017-Nov-14 10:30N 70°43' E 023°49'0 0.0
2017-Nov-14 10:00N 70°43' E 023°49'0 0.0
2017-Nov-14 09:30N 70°43' E 023°49'0 0.0
2017-Nov-14 09:00N 70°43' E 023°49'0 0.0
2017-Nov-14 08:30N 70°43' E 023°49'0 0.0
2017-Nov-14 08:00N 70°43' E 023°49'0 0.0
2017-Nov-14 07:30N 70°43' E 023°49'0 0.0
2017-Nov-14 07:00N 70°43' E 023°49'0 0.0
2017-Nov-14 06:31N 70°43' E 023°49'0 0.0
2017-Nov-14 06:00N 70°43' E 023°49'0 0.0
2017-Nov-14 05:30N 70°43' E 023°49'0 0.0
2017-Nov-14 05:01N 70°43' E 023°49'0 0.0
2017-Nov-14 04:30N 70°43' E 023°49'0 0.0
2017-Nov-14 04:00N 70°43' E 023°49'0 0.0
2017-Nov-14 03:30N 70°43' E 023°49'0 0.0
2017-Nov-14 03:00N 70°43' E 023°49'0 0.0
2017-Nov-14 02:30N 70°43' E 023°49'0 0.0
2017-Nov-14 02:00N 70°43' E 023°49'0 0.0
2017-Nov-14 01:30N 70°43' E 023°49'0 0.0
2017-Nov-14 01:00N 70°43' E 023°49'0 0.0
2017-Nov-14 00:30N 70°43' E 023°49'0 0.0
2017-Nov-14 00:00N 70°43' E 023°49'0 0.0
2017-Nov-13 23:30N 70°43' E 023°49'0 0.0
2017-Nov-13 23:00N 70°43' E 023°49'0 0.0
2017-Nov-13 22:30N 70°43' E 023°49'0 0.0
2017-Nov-13 22:00N 70°43' E 023°49'36 1.8
2017-Nov-13 02:00N 70°29' E 022°10'0 0.0
2017-Nov-13 01:30N 70°29' E 022°10'0 0.0
2017-Nov-13 01:00N 70°29' E 022°10'0 0.0
2017-Nov-13 00:30N 70°29' E 022°10'0 0.0
2017-Nov-13 00:00N 70°29' E 022°10'1 1.1
2017-Nov-12 23:30N 70°28' E 022°11'4 8.5
2017-Nov-12 23:00N 70°24' E 022°15'4 8.5
2017-Nov-12 22:30N 70°20' E 022°19'4 8.4
2017-Nov-12 22:00N 70°17' E 022°26'4 8.0
2017-Nov-12 21:30N 70°16' E 022°37'0 0.2
2017-Nov-12 21:00N 70°16' E 022°38'3 6.1
2017-Nov-12 20:30N 70°16' E 022°29'4 8.3
2017-Nov-12 20:00N 70°18' E 022°18'4 8.2
2017-Nov-12 19:30N 70°20' E 022°07'4 8.3
2017-Nov-12 19:00N 70°22' E 021°56'4 8.3
2017-Nov-12 18:30N 70°24' E 021°44'4 7.4
2017-Nov-12 18:00N 70°22' E 021°35'4 8.3
2017-Nov-12 17:30N 70°19' E 021°27'4 8.4
2017-Nov-12 17:01N 70°16' E 021°17'4 8.1
2017-Nov-12 16:31N 70°13' E 021°09'4 8.5
2017-Nov-12 16:00N 70°09' E 021°07'4 8.2
2017-Nov-12 15:30N 70°05' E 021°03'3 6.8
2017-Nov-12 15:00N 70°02' E 020°59'0 0.0
2017-Nov-12 14:30N 70°02' E 020°59'0 0.0
2017-Nov-12 14:00N 70°02' E 020°59'0 0.0
2017-Nov-12 13:30N 70°02' E 020°59'0 0.0
2017-Nov-12 13:00N 70°02' E 020°59'0 0.0
2017-Nov-12 12:31N 70°02' E 020°59'0 0.0
2017-Nov-12 12:01N 70°02' E 020°59'0 0.0
2017-Nov-12 11:30N 70°02' E 020°59'0 0.0
2017-Nov-12 11:00N 70°02' E 020°59'0 0.0
2017-Nov-12 10:30N 70°02' E 020°59'0 0.0
2017-Nov-12 10:00N 70°02' E 020°59'0 0.0
2017-Nov-12 09:30N 70°02' E 020°59'0 0.0
2017-Nov-12 09:00N 70°02' E 020°59'0 0.0
2017-Nov-12 08:30N 70°02' E 020°59'0 0.0
2017-Nov-12 08:00N 70°02' E 020°59'0 0.0
2017-Nov-12 07:30N 70°02' E 020°59'0 0.0
2017-Nov-12 07:00N 70°02' E 020°59'0 0.0
2017-Nov-12 06:30N 70°02' E 020°59'0 0.0
2017-Nov-12 06:00N 70°02' E 020°59'0 0.0
2017-Nov-12 05:30N 70°02' E 020°59'0 0.0
2017-Nov-12 04:59N 70°02' E 020°59'0 0.0
2017-Nov-12 04:30N 70°02' E 020°59'0 0.0
2017-Nov-12 04:00N 70°02' E 020°59'0 0.0
2017-Nov-12 03:30N 70°02' E 020°59'0 0.0
2017-Nov-12 03:00N 70°02' E 020°59'0 0.0
2017-Nov-12 02:30N 70°02' E 020°59'0 0.0
2017-Nov-12 02:00N 70°02' E 020°59'0 0.0
2017-Nov-12 01:31N 70°02' E 020°59'0 0.0
2017-Nov-12 01:00N 70°02' E 020°59'0 0.0
2017-Nov-12 00:29N 70°02' E 020°59'0 0.0
2017-Nov-12 00:00N 70°02' E 020°59'0 0.0
2017-Nov-11 23:30N 70°02' E 020°59'0 0.0
2017-Nov-11 23:01N 70°02' E 020°59'0 0.0
2017-Nov-11 22:29N 70°02' E 020°59'0 0.0
2017-Nov-11 22:00N 70°02' E 020°59'0 0.0
2017-Nov-11 21:31N 70°02' E 020°59'0 0.0
2017-Nov-11 21:00N 70°02' E 020°59'0 0.0
2017-Nov-11 20:30N 70°02' E 020°59'0 0.0
2017-Nov-11 20:00N 70°02' E 020°59'0 0.0
2017-Nov-11 19:30N 70°02' E 020°59'0 0.0
2017-Nov-11 19:01N 70°02' E 020°59'0 0.0
2017-Nov-11 18:29N 70°02' E 020°59'0 0.0
2017-Nov-11 18:00N 70°02' E 020°59'0 0.0
2017-Nov-11 17:30N 70°02' E 020°59'2 4.7
2017-Nov-11 17:00N 70°00' E 021°04'4 7.8
2017-Nov-11 16:30N 69°57' E 020°58'4 8.7
2017-Nov-11 16:00N 69°55' E 020°47'4 7.5
2017-Nov-11 15:30N 69°55' E 020°36'0 0.0
2017-Nov-11 15:00N 69°55' E 020°36'0 0.0
2017-Nov-11 14:30N 69°55' E 020°36'0 0.0
2017-Nov-11 14:00N 69°55' E 020°36'0 0.0
2017-Nov-11 13:30N 69°55' E 020°36'0 0.0
2017-Nov-11 13:00N 69°55' E 020°36'0 0.1
2017-Nov-11 12:30N 69°55' E 020°36'0 0.0
2017-Nov-11 12:00N 69°55' E 020°36'0 0.0
2017-Nov-11 11:30N 69°55' E 020°36'0 0.0
2017-Nov-11 11:00N 69°55' E 020°36'0 0.0
2017-Nov-11 10:30N 69°55' E 020°36'0 0.0
2017-Nov-11 10:00N 69°55' E 020°36'0 0.0
2017-Nov-11 09:30N 69°55' E 020°36'0 0.0
2017-Nov-11 09:00N 69°55' E 020°36'3 5.7
2017-Nov-11 08:30N 69°55' E 020°45'4 7.8
2017-Nov-11 08:00N 69°56' E 020°56'4 8.0
2017-Nov-11 07:30N 69°59' E 021°04'3 6.4
2017-Nov-11 07:00N 70°02' E 020°59'0 0.3
2017-Nov-11 06:30N 70°02' E 020°59'0 0.0
2017-Nov-11 06:00N 70°02' E 020°59'0 0.0
2017-Nov-11 05:30N 70°02' E 020°59'0 0.0
2017-Nov-11 05:00N 70°02' E 020°59'0 0.0
2017-Nov-11 04:30N 70°02' E 020°59'0 0.0
2017-Nov-11 04:00N 70°02' E 020°59'0 0.0
2017-Nov-11 03:31N 70°02' E 020°59'0 0.0
2017-Nov-11 03:00N 70°02' E 020°59'0 0.0
2017-Nov-11 02:30N 70°02' E 020°59'0 0.0
2017-Nov-11 02:00N 70°02' E 020°59'0 0.0
2017-Nov-11 01:30N 70°02' E 020°59'0 0.0
2017-Nov-11 01:00N 70°02' E 020°59'0 0.0
2017-Nov-11 00:30N 70°02' E 020°59'0 0.0
2017-Nov-11 00:00N 70°02' E 020°59'0 0.0
2017-Nov-10 23:30N 70°02' E 020°59'0 0.0
2017-Nov-10 23:00N 70°02' E 020°59'0 0.0
2017-Nov-10 22:30N 70°02' E 020°59'0 0.0
2017-Nov-10 21:59N 70°02' E 020°59'0 0.0
2017-Nov-10 21:30N 70°02' E 020°59'0 0.0
2017-Nov-10 21:00N 70°02' E 020°59'0 0.0
2017-Nov-10 20:30N 70°02' E 020°59'0 0.0
2017-Nov-10 20:00N 70°02' E 020°59'0 0.0
2017-Nov-10 19:30N 70°02' E 020°59'0 0.0
2017-Nov-10 19:00N 70°02' E 020°59'0 0.0
2017-Nov-10 18:30N 70°02' E 020°59'0 0.0
2017-Nov-10 18:00N 70°02' E 020°59'0 0.0
2017-Nov-10 17:30N 70°02' E 020°59'0 0.0
2017-Nov-10 17:00N 70°02' E 020°59'0 0.0
2017-Nov-10 16:30N 70°02' E 020°59'0 0.0
2017-Nov-10 16:00N 70°02' E 020°59'0 0.0
2017-Nov-10 15:31N 70°02' E 020°59'0 0.0
2017-Nov-10 15:00N 70°02' E 020°59'0 0.0
2017-Nov-10 14:30N 70°02' E 020°59'0 0.0
2017-Nov-10 14:00N 70°02' E 020°59'0 0.0
2017-Nov-10 13:30N 70°02' E 020°59'0 0.0
2017-Nov-10 13:00N 70°02' E 020°59'0 0.0
2017-Nov-10 12:30N 70°02' E 020°59'0 0.0
2017-Nov-10 12:00N 70°02' E 020°59'0 0.0
2017-Nov-10 11:30N 70°02' E 020°59'0 0.0
2017-Nov-10 11:00N 70°02' E 020°59'0 0.7
2017-Nov-10 10:30N 70°02' E 020°59'4 7.5
2017-Nov-10 10:01N 70°05' E 021°04'4 8.0
2017-Nov-10 09:30N 70°09' E 021°07'4 7.7
2017-Nov-10 09:00N 70°13' E 021°09'4 7.5
2017-Nov-10 08:30N 70°16' E 021°17'4 7.8
2017-Nov-10 08:00N 70°18' E 021°26'4 7.7
2017-Nov-10 07:30N 70°20' E 021°35'4 8.2
2017-Nov-10 07:00N 70°17' E 021°40'4 7.5
2017-Nov-10 06:30N 70°13' E 021°43'0 0.1
2017-Nov-10 06:00N 70°13' E 021°43'0 0.0
2017-Nov-10 05:30N 70°13' E 021°43'0 0.0
2017-Nov-10 04:59N 70°13' E 021°43'0 0.0
2017-Nov-10 04:30N 70°13' E 021°43'0 0.0
2017-Nov-10 04:00N 70°13' E 021°43'0 0.0
2017-Nov-10 03:30N 70°13' E 021°43'0 0.0
2017-Nov-10 02:58N 70°13' E 021°43'0 0.0
2017-Nov-10 02:26N 70°13' E 021°43'0 0.0
2017-Nov-10 01:57N 70°13' E 021°43'0 0.0
2017-Nov-10 01:29N 70°13' E 021°43'0 0.0
2017-Nov-10 00:59N 70°13' E 021°43'0 0.0
2017-Nov-10 00:28N 70°13' E 021°43'0 0.0
2017-Nov-10 00:00N 70°13' E 021°43'0 0.0
2017-Nov-09 23:29N 70°13' E 021°43'0 0.0
2017-Nov-09 22:57N 70°13' E 021°43'0 0.0
2017-Nov-09 22:30N 70°13' E 021°43'0 0.0
2017-Nov-09 21:57N 70°13' E 021°43'0 0.0
2017-Nov-09 21:16N 70°13' E 021°43'0 0.0
2017-Nov-09 21:00N 70°13' E 021°43'0 0.0
2017-Nov-09 20:30N 70°13' E 021°43'0 0.0
2017-Nov-09 20:00N 70°13' E 021°43'0 0.0
2017-Nov-09 19:30N 70°13' E 021°43'0 0.0
2017-Nov-09 19:00N 70°13' E 021°43'0 0.0
2017-Nov-09 18:29N 70°13' E 021°43'0 0.0
2017-Nov-09 17:57N 70°13' E 021°43'0 0.0
2017-Nov-09 17:30N 70°13' E 021°43'4 7.3
2017-Nov-09 17:00N 70°17' E 021°47'4 8.1
2017-Nov-09 16:30N 70°20' E 021°54'4 7.7
2017-Nov-09 16:00N 70°22' E 022°04'3 6.1
2017-Nov-09 15:30N 70°24' E 022°10'4 7.5
2017-Nov-09 15:00N 70°27' E 022°18'4 7.4
2017-Nov-09 14:30N 70°28' E 022°28'4 8.0
2017-Nov-09 14:00N 70°29' E 022°40'3 6.6
2017-Nov-09 13:30N 70°30' E 022°49'4 7.3
2017-Nov-09 13:00N 70°32' E 022°59'4 8.1
2017-Nov-09 12:30N 70°35' E 023°07'4 8.0
2017-Nov-09 12:00N 70°37' E 023°16'4 8.6
2017-Nov-09 11:30N 70°40' E 023°25'4 8.2
2017-Nov-09 11:00N 70°43' E 023°34'4 8.1
2017-Nov-09 10:30N 70°46' E 023°43'4 7.8
2017-Nov-09 10:00N 70°48' E 023°53'4 8.1
2017-Nov-09 09:30N 70°51' E 024°02'4 8.6
2017-Nov-09 09:00N 70°54' E 024°12'4 8.3
2017-Nov-09 08:30N 70°56' E 024°22'4 8.0
2017-Nov-09 08:00N 70°59' E 024°32'3 6.9
2017-Nov-09 07:30N 70°60' E 024°42'0 0.0
2017-Nov-09 07:00N 70°60' E 024°42'1 1.4
2017-Nov-09 06:30N 70°60' E 024°40'0 0.0
2017-Nov-09 06:00N 70°60' E 024°40'0 0.0
2017-Nov-09 05:29N 70°60' E 024°40'0 0.0
2017-Nov-09 05:01N 70°60' E 024°40'0 0.0
2017-Nov-09 04:30N 70°60' E 024°40'0 0.0
2017-Nov-09 04:01N 70°60' E 024°40'0 0.0
2017-Nov-09 03:30N 70°60' E 024°40'0 0.0
2017-Nov-09 03:00N 70°60' E 024°40'0 0.0
2017-Nov-09 02:30N 70°60' E 024°40'0 0.0
2017-Nov-09 02:01N 70°60' E 024°40'0 0.0
2017-Nov-09 01:30N 70°60' E 024°40'0 0.0
2017-Nov-09 01:00N 70°60' E 024°40'0 0.0
2017-Nov-09 00:31N 70°60' E 024°40'0 0.0
2017-Nov-09 00:00N 70°60' E 024°40'0 0.0
2017-Nov-08 23:30N 70°60' E 024°40'0 0.0
2017-Nov-08 23:00N 70°60' E 024°40'0 0.0
2017-Nov-08 22:30N 70°60' E 024°40'0 0.0
2017-Nov-08 22:00N 70°60' E 024°40'0 0.0
2017-Nov-08 21:30N 70°60' E 024°40'0 0.0
2017-Nov-08 21:00N 70°60' E 024°40'0 0.0
2017-Nov-08 20:30N 70°60' E 024°40'0 0.0
2017-Nov-08 20:00N 70°60' E 024°40'0 0.0
2017-Nov-08 19:30N 70°60' E 024°40'0 0.0
2017-Nov-08 19:00N 70°60' E 024°40'0 0.0
2017-Nov-08 18:30N 70°60' E 024°40'0 0.0
2017-Nov-08 18:00N 70°60' E 024°40'0 0.0
2017-Nov-08 17:30N 70°60' E 024°40'0 0.0
2017-Nov-08 17:00N 70°60' E 024°40'0 0.0
2017-Nov-08 16:30N 70°60' E 024°40'0 0.0
2017-Nov-08 16:00N 70°60' E 024°40'1 1.3
2017-Nov-08 15:30N 70°60' E 024°42'0 0.0
2017-Nov-08 15:00N 70°60' E 024°42'1 1.1
2017-Nov-08 14:30N 70°60' E 024°40'3 5.5
2017-Nov-08 13:59N 70°58' E 024°35'0 0.0
2017-Nov-08 13:30N 70°58' E 024°34'0 0.9
2017-Nov-08 13:00N 70°58' E 024°33'0 0.9
2017-Nov-08 12:30N 70°57' E 024°34'0 0.9
2017-Nov-08 12:00N 70°57' E 024°33'0 0.5
2017-Nov-08 11:30N 70°58' E 024°33'0 0.2
2017-Nov-08 11:00N 70°58' E 024°33'0 0.4
2017-Nov-08 10:30N 70°58' E 024°33'0 0.2
2017-Nov-08 10:00N 70°57' E 024°34'1 1.0
2017-Nov-08 09:30N 70°58' E 024°32'0 0.0
2017-Nov-08 09:00N 70°58' E 024°32'1 1.0
2017-Nov-08 08:30N 70°57' E 024°34'1 1.3
2017-Nov-08 08:00N 70°58' E 024°36'2 3.3
2017-Nov-08 07:31N 70°59' E 024°35'2 4.4
2017-Nov-08 07:00N 70°60' E 024°42'1 1.1
2017-Nov-08 06:31N 70°60' E 024°40'0 0.0
2017-Nov-08 06:00N 70°60' E 024°40'0 0.0
2017-Nov-08 05:30N 70°60' E 024°40'0 0.0
2017-Nov-08 05:01N 70°60' E 024°40'0 0.0
2017-Nov-08 04:30N 70°60' E 024°40'0 0.0
2017-Nov-08 04:01N 70°60' E 024°40'0 0.0
2017-Nov-08 03:29N 70°60' E 024°40'0 0.0
2017-Nov-08 03:00N 70°60' E 024°40'0 0.0
2017-Nov-08 02:30N 70°60' E 024°40'0 0.0
2017-Nov-08 02:01N 70°60' E 024°40'0 0.0
2017-Nov-08 01:30N 70°60' E 024°40'0 0.0
2017-Nov-08 01:00N 70°60' E 024°40'0 0.0
2017-Nov-08 00:30N 70°60' E 024°40'0 0.0
2017-Nov-08 00:01N 70°60' E 024°40'0 0.0
2017-Nov-07 23:30N 70°60' E 024°40'0 0.0
2017-Nov-07 23:01N 70°60' E 024°40'0 0.0
2017-Nov-07 22:30N 70°60' E 024°40'0 0.0
2017-Nov-07 22:00N 70°60' E 024°40'0 0.0
2017-Nov-07 21:30N 70°60' E 024°40'0 0.0
2017-Nov-07 21:00N 70°60' E 024°40'0 0.0
2017-Nov-07 20:30N 70°60' E 024°40'0 0.0
2017-Nov-07 20:00N 70°60' E 024°40'0 0.0
2017-Nov-07 19:30N 70°60' E 024°40'0 0.0
2017-Nov-07 19:01N 70°60' E 024°40'0 0.0
2017-Nov-07 18:30N 70°60' E 024°40'0 0.0
2017-Nov-07 18:00N 70°60' E 024°40'0 0.0
2017-Nov-07 17:30N 70°60' E 024°40'0 0.0
2017-Nov-07 16:59N 70°60' E 024°40'1 2.9
2017-Nov-07 16:30N 70°59' E 024°36'2 3.7
2017-Nov-07 16:00N 70°57' E 024°36'0 0.1
2017-Nov-07 15:30N 70°58' E 024°36'1 1.6
2017-Nov-07 15:00N 70°58' E 024°33'0 0.3
2017-Nov-07 14:31N 70°58' E 024°34'0 0.1
2017-Nov-07 14:00N 70°58' E 024°34'0 0.3
2017-Nov-07 13:30N 70°58' E 024°33'0 0.5
2017-Nov-07 13:00N 70°58' E 024°34'0 0.3
2017-Nov-07 12:30N 70°58' E 024°34'1 1.3
2017-Nov-07 12:00N 70°57' E 024°32'1 1.4
2017-Nov-07 11:30N 70°58' E 024°34'0 0.3
2017-Nov-07 11:00N 70°57' E 024°34'0 0.9
2017-Nov-07 10:30N 70°57' E 024°33'0 0.3
2017-Nov-07 10:01N 70°58' E 024°33'1 1.9
2017-Nov-07 09:31N 70°58' E 024°32'3 5.9
2017-Nov-07 09:00N 70°60' E 024°40'0 0.0
2017-Nov-07 08:30N 70°60' E 024°40'0 0.0
2017-Nov-07 08:00N 70°60' E 024°40'0 0.0
2017-Nov-07 07:30N 70°60' E 024°40'0 0.0
2017-Nov-07 07:00N 70°60' E 024°40'0 0.0
2017-Nov-07 06:30N 70°60' E 024°40'0 0.0
2017-Nov-07 06:00N 70°60' E 024°40'0 0.0
2017-Nov-07 05:30N 70°60' E 024°40'0 0.0
2017-Nov-07 05:00N 70°60' E 024°40'0 0.0
2017-Nov-07 04:30N 70°60' E 024°40'0 0.0
2017-Nov-07 04:00N 70°60' E 024°40'0 0.0
2017-Nov-07 03:31N 70°60' E 024°40'0 0.0
2017-Nov-07 03:00N 70°60' E 024°40'0 0.0
2017-Nov-07 02:30N 70°60' E 024°40'0 0.0
2017-Nov-07 01:59N 70°60' E 024°40'0 0.0
2017-Nov-07 01:30N 70°60' E 024°40'0 0.0
2017-Nov-07 01:00N 70°60' E 024°40'0 0.0
2017-Nov-07 00:29N 70°60' E 024°40'0 0.0
2017-Nov-07 00:00N 70°60' E 024°40'0 0.0
2017-Nov-06 23:31N 70°60' E 024°40'0 0.0
2017-Nov-06 23:00N 70°60' E 024°40'0 0.0
2017-Nov-06 22:30N 70°60' E 024°40'0 0.0
2017-Nov-06 22:00N 70°60' E 024°40'0 0.0
2017-Nov-06 21:30N 70°60' E 024°40'0 0.0
2017-Nov-06 21:00N 70°60' E 024°40'0 0.0
2017-Nov-06 20:30N 70°60' E 024°40'  

Dump ship's entire track history